Time;durP1;ratioP1;P1;durP2;ratioP2;P2;SDS_P1;SDS_P2;PMS_P1;PMS_P2;Temp;Humidity;BMP_temperature;BMP_pressure;BME280_temperature;BME280_humidity;BME280_pressure;Samples;Min_cycle;Max_cycle;Signal;HPM_P1;HPM_P2
2023/07/21 00:00:21;;;;;;;5.43;2.60;;;;;;;16.32;69.35;100704.47;4998463;28;20440;-81
2023/07/21 00:02:54;;;;;;;2.90;2.33;;;;;;;16.22;69.92;100700.69;4981430;28;20619;-82
2023/07/21 00:05:24;;;;;;;5.63;3.17;;;;;;;16.15;70.69;100705.50;4988539;28;20439;-83
2023/07/21 00:07:54;;;;;;;4.33;2.43;;;;;;;16.53;70.14;100697.47;4996332;28;20498;-82
2023/07/21 00:10:25;;;;;;;3.80;2.70;;;;;;;16.56;69.37;100702.44;4981343;28;20481;-81
2023/07/21 00:12:54;;;;;;;7.03;3.57;;;;;;;16.39;69.18;100696.13;4979492;28;20932;-81
2023/07/21 00:15:23;;;;;;;5.13;2.83;;;;;;;16.13;70.86;100688.53;4983226;28;20489;-81
2023/07/21 00:17:53;;;;;;;2.33;2.07;;;;;;;16.32;70.00;100687.25;4970644;28;20470;-83
2023/07/21 00:20:24;;;;;;;6.53;2.43;;;;;;;16.17;70.34;100687.78;5003142;28;20447;-82
2023/07/21 00:22:54;;;;;;;5.50;2.93;;;;;;;16.42;70.19;100684.69;4975391;28;20433;-82
2023/07/21 00:25:25;;;;;;;3.80;2.90;;;;;;;16.40;70.77;100681.41;4973300;28;20940;-81
2023/07/21 00:27:54;;;;;;;3.20;2.30;;;;;;;16.57;69.25;100681.41;4991238;28;20469;-82
2023/07/21 00:30:24;;;;;;;4.80;2.57;;;;;;;16.35;70.05;100679.41;4989863;28;20426;-81
2023/07/21 00:32:53;;;;;;;3.67;2.97;;;;;;;16.45;69.06;100674.13;4992687;28;20445;-82
2023/07/21 00:35:23;;;;;;;5.80;2.70;;;;;;;16.26;69.95;100669.13;4964924;29;20479;-81
2023/07/21 00:37:52;;;;;;;2.80;2.13;;;;;;;16.17;71.13;100676.06;4979699;28;20473;-82
2023/07/21 00:40:23;;;;;;;3.37;2.60;;;;;;;16.15;70.47;100667.28;4966299;28;20432;-82
2023/07/21 00:42:54;;;;;;;2.50;2.27;;;;;;;16.08;70.88;100672.88;4966233;28;20432;-82
2023/07/21 00:45:23;;;;;;;4.70;2.30;;;;;;;16.26;70.72;100674.59;4969472;28;20435;-82
2023/07/21 00:47:53;;;;;;;3.33;2.17;;;;;;;16.27;70.18;100671.59;4963625;28;20598;-83
2023/07/21 00:50:22;;;;;;;3.60;2.60;;;;;;;15.94;70.79;100666.88;4958454;28;20790;-81
2023/07/21 00:52:52;;;;;;;3.00;2.10;;;;;;;16.24;70.57;100676.72;4989976;28;20481;-82
2023/07/21 00:55:22;;;;;;;4.17;2.30;;;;;;;16.26;70.54;100674.59;4975600;28;20549;-81
2023/07/21 00:57:51;;;;;;;3.10;2.00;;;;;;;16.44;70.42;100671.66;4962249;28;20796;-81
2023/07/21 01:00:21;;;;;;;4.20;2.30;;;;;;;16.26;69.87;100674.59;4980619;28;20427;-82
2023/07/21 01:02:50;;;;;;;4.13;2.20;;;;;;;16.06;71.30;100673.13;4989666;28;20914;-82
2023/07/21 01:05:20;;;;;;;3.80;2.30;;;;;;;15.74;71.93;100669.19;4983598;28;20403;-82
2023/07/21 01:07:50;;;;;;;2.30;1.83;;;;;;;16.20;71.01;100670.09;4965255;28;20441;-82
2023/07/21 01:10:21;;;;;;;3.83;2.10;;;;;;;16.04;70.97;100661.63;4974145;28;20450;-82
2023/07/21 01:12:51;;;;;;;3.23;1.70;;;;;;;15.96;71.69;100667.47;4987142;28;20912;-83
2023/07/21 01:15:22;;;;;;;3.90;2.20;;;;;;;15.91;72.57;100666.53;4990821;28;20442;-82
2023/07/21 01:17:53;;;;;;;3.07;2.00;;;;;;;15.92;71.79;100670.94;4981524;28;20835;-82
2023/07/21 01:20:24;;;;;;;2.90;2.03;;;;;;;15.76;71.79;100664.34;4973634;28;20500;-82
2023/07/21 01:22:58;;;;;;;3.07;2.53;;;;;;;15.78;72.37;100669.56;4979231;28;20450;-82
2023/07/21 01:25:30;;;;;;;4.87;2.83;;;;;;;15.57;72.55;100665.56;4983413;28;20406;-82
2023/07/21 01:28:02;;;;;;;3.90;2.60;;;;;;;15.51;73.70;100664.63;4964649;28;20452;-82
2023/07/21 01:30:32;;;;;;;3.80;2.40;;;;;;;15.37;74.29;100668.66;4961982;28;20494;-82
2023/07/21 01:33:02;;;;;;;3.63;2.20;;;;;;;15.58;74.13;100661.78;4981151;28;20486;-82
2023/07/21 01:35:33;;;;;;;4.03;1.80;;;;;;;15.96;72.77;100664.75;4977251;28;20409;-83
2023/07/21 01:38:04;;;;;;;3.60;2.30;;;;;;;15.58;73.21;100662.63;4959657;28;20478;-82
2023/07/21 01:40:36;;;;;;;3.40;2.20;;;;;;;15.45;73.98;100667.44;4967806;28;20802;-82
2023/07/21 01:43:05;;;;;;;2.60;1.70;;;;;;;15.17;75.04;100660.84;4982587;28;20432;-82
2023/07/21 01:45:35;;;;;;;4.70;2.43;;;;;;;14.97;76.35;100662.25;4970639;28;20508;-82
2023/07/21 01:48:05;;;;;;;3.43;2.20;;;;;;;15.01;76.30;100663.44;4990007;28;20441;-82
2023/07/21 01:50:37;;;;;;;5.23;1.90;;;;;;;15.02;76.44;100665.94;4970686;28;20425;-81
2023/07/21 01:53:13;;;;;;;2.87;1.83;;;;;;;15.40;74.92;100659.97;5001749;28;20420;-82
2023/07/21 01:55:53;;;;;;;3.90;2.27;;;;;;;15.60;74.33;100659.63;4987236;28;20451;-81
2023/07/21 01:58:24;;;;;;;4.23;3.00;;;;;;;15.41;74.50;100661.66;4990617;28;20455;-82
2023/07/21 02:00:55;;;;;;;4.83;2.60;;;;;;;15.42;74.51;100657.03;4962779;28;20421;-81
2023/07/21 02:03:26;;;;;;;4.10;2.13;;;;;;;15.59;74.44;100666.13;4979486;28;20438;-80
2023/07/21 02:05:56;;;;;;;4.00;2.90;;;;;;;15.64;73.27;100661.63;4980549;28;20493;-81
2023/07/21 02:08:25;;;;;;;2.87;2.33;;;;;;;15.39;73.49;100669.25;4961053;28;20524;-82
2023/07/21 02:10:56;;;;;;;3.83;2.37;;;;;;;15.18;74.71;100667.97;4972556;28;20467;-83
2023/07/21 02:13:38;;;;;;;3.50;2.37;;;;;;;15.30;75.10;100670.66;4980531;28;20405;-83
2023/07/21 02:16:07;;;;;;;2.87;2.10;;;;;;;15.55;73.51;100667.69;4997247;28;20466;-83
2023/07/21 02:18:39;;;;;;;4.10;2.00;;;;;;;15.59;73.22;100668.88;4980987;28;20430;-83
2023/07/21 02:21:08;;;;;;;3.10;2.30;;;;;;;15.48;73.77;100670.53;4990341;28;20447;-81
2023/07/21 02:23:37;;;;;;;1.43;1.33;;;;;;;15.69;73.95;100669.09;4971232;28;20506;-82
2023/07/21 02:26:08;;;;;;;3.00;1.83;;;;;;;15.64;73.03;100674.44;4966666;28;20462;-81
2023/07/21 02:28:37;;;;;;;3.30;2.23;;;;;;;15.55;73.13;100673.16;4986999;28;20446;-82
2023/07/21 02:31:09;;;;;;;3.60;2.10;;;;;;;15.57;73.31;100673.75;4969038;28;20436;-82
2023/07/21 02:33:38;;;;;;;6.77;2.60;;;;;;;15.36;73.80;100671.59;4970494;28;20496;-82
2023/07/21 02:36:08;;;;;;;3.20;1.90;;;;;;;15.52;74.38;100673.63;4959293;28;20537;-82
2023/07/21 02:38:38;;;;;;;4.30;2.90;;;;;;;15.34;74.13;100666.41;4976421;28;20459;-83
2023/07/21 02:41:09;;;;;;;5.20;2.43;;;;;;;15.06;75.14;100658.94;4973649;28;20415;-82
2023/07/21 02:43:38;;;;;;;3.43;2.67;;;;;;;15.03;76.13;100661.31;4990703;28;20428;-82
2023/07/21 02:46:08;;;;;;;3.90;2.20;;;;;;;15.00;75.76;100657.19;4970700;28;20417;-82
2023/07/21 02:48:37;;;;;;;4.13;2.47;;;;;;;14.85;76.63;100654.09;4977815;28;20510;-81
2023/07/21 02:51:07;;;;;;;5.40;3.10;;;;;;;14.75;77.36;100642.94;4968682;28;20442;-82
2023/07/21 02:53:43;;;;;;;4.10;2.13;;;;;;;14.66;77.34;100644.38;4980015;28;20413;-82
2023/07/21 02:56:15;;;;;;;6.07;3.27;;;;;;;14.60;78.19;100645.28;4974816;28;20455;-81
2023/07/21 02:59:01;;;;;;;3.40;2.10;;;;;;;14.59;78.50;100640.91;4974590;28;20997;-81
2023/07/21 03:02:26;;;;;;;3.30;2.20;;;;;;;14.52;79.22;100649.19;4995397;28;20422;-82
2023/07/21 03:04:57;;;;;;;2.97;2.20;;;;;;;14.37;80.21;100647.97;4962292;28;20474;-82
2023/07/21 03:07:26;;;;;;;3.57;2.87;;;;;;;14.13;81.07;100645.16;4964679;28;20551;-83
2023/07/21 03:10:03;;;;;;;4.97;3.00;;;;;;;14.43;80.29;100652.47;4958061;28;20446;-81
2023/07/21 03:12:37;;;;;;;5.53;3.47;;;;;;;14.32;81.07;100646.75;4966078;28;20417;-82
2023/07/21 03:15:27;;;;;;;5.03;2.87;;;;;;;14.38;80.75;100646.91;4968958;28;20436;-82
2023/07/21 03:18:05;;;;;;;4.60;2.77;;;;;;;14.57;80.92;100651.22;4978999;28;20450;-82
2023/07/21 03:20:44;;;;;;;3.60;3.00;;;;;;;14.43;81.13;100647.03;4970304;28;20464;-82
2023/07/21 03:23:14;;;;;;;7.10;3.27;;;;;;;14.21;81.70;100646.72;4964409;28;20565;-82
2023/07/21 03:25:46;;;;;;;5.10;3.67;;;;;;;14.36;82.61;100649.88;4952329;28;20422;-82
2023/07/21 03:28:21;;;;;;;5.83;2.70;;;;;;;14.11;82.88;100647.28;4983851;28;20512;-82
2023/07/21 03:30:58;;;;;;;5.53;3.30;;;;;;;13.98;82.92;100644.75;4975074;28;20405;-81
2023/07/21 03:33:28;;;;;;;9.23;3.17;;;;;;;14.15;83.99;100655.78;4952525;28;20462;-81
2023/07/21 03:36:09;;;;;;;4.57;3.20;;;;;;;14.57;82.07;100654.75;4953047;28;20853;-81
2023/07/21 03:38:39;;;;;;;5.47;2.50;;;;;;;14.67;80.77;100654.16;4993889;28;20484;-80
2023/07/21 03:41:11;;;;;;;4.13;2.30;;;;;;;15.14;79.85;100664.06;4988274;28;20443;-82
2023/07/21 03:43:43;;;;;;;5.07;3.60;;;;;;;16.07;74.86;100655.66;4996589;28;20449;-81
2023/07/21 03:46:13;;;;;;;3.53;2.63;;;;;;;16.87;71.28;100657.38;4996936;28;20595;-82
2023/07/21 03:49:01;;;;;;;3.40;3.10;;;;;;;17.33;69.16;100653.44;5001974;28;20496;-82
2023/07/21 03:51:32;;;;;;;5.77;3.17;;;;;;;17.88;67.83;100656.06;4998060;28;20443;-83
2023/07/21 03:59:18;;;;;;;4.90;3.50;;;;;;;19.09;62.00;100650.91;4996649;28;20505;-82
2023/07/21 04:06:18;;;;;;;4.00;2.77;;;;;;;19.67;59.95;100636.16;4986044;28;20397;-82
2023/07/21 04:08:47;;;;;;;3.80;2.43;;;;;;;20.22;57.93;100635.53;4994904;28;20466;-82
2023/07/21 04:11:16;;;;;;;8.10;3.50;;;;;;;20.68;56.05;100641.06;4998893;28;20409;-81
2023/07/21 04:13:45;;;;;;;5.73;3.40;;;;;;;20.54;56.12;100631.72;4986428;28;20409;-82
2023/07/21 04:16:14;;;;;;;7.37;4.03;;;;;;;20.69;55.28;100631.72;4983295;28;20434;-81
2023/07/21 04:18:43;;;;;;;11.60;3.87;;;;;;;20.98;54.00;100638.31;4993947;28;20421;-82
2023/07/21 04:21:12;;;;;;;6.20;3.40;;;;;;;20.97;53.88;100638.56;4997413;28;20421;-82
2023/07/21 04:23:42;;;;;;;7.33;3.87;;;;;;;21.15;52.87;100630.63;4982277;28;20517;-82
2023/07/21 04:26:14;;;;;;;7.70;3.63;;;;;;;21.69;51.43;100633.47;4982703;28;20480;-82
2023/07/21 04:28:45;;;;;;;6.30;5.00;;;;;;;21.55;51.28;100628.84;4989673;28;20451;-81
2023/07/21 04:31:15;;;;;;;10.40;5.37;;;;;;;20.68;53.54;100630.06;4986178;28;20424;-81
2023/07/21 04:34:05;;;;;;;6.13;5.47;;;;;;;20.95;53.31;100625.13;4988723;28;20417;-81
2023/07/21 04:36:35;;;;;;;5.70;4.67;;;;;;;21.11;52.90;100629.47;4981757;28;20417;-80
2023/07/21 04:39:12;;;;;;;8.10;4.50;;;;;;;21.56;51.81;100630.50;4991278;28;20530;-80
2023/07/21 04:41:41;;;;;;;6.43;4.20;;;;;;;22.68;48.97;100633.44;4994039;28;20634;-81
2023/07/21 04:44:10;;;;;;;7.83;4.70;;;;;;;23.12;47.20;100633.31;4987794;28;20448;-82
2023/07/21 04:46:39;;;;;;;7.47;4.97;;;;;;;23.09;46.72;100626.44;4985500;28;20450;-81
2023/07/21 04:49:13;;;;;;;11.43;5.17;;;;;;;20.92;51.70;100617.41;4966936;28;20417;-81
2023/07/21 04:51:45;;;;;;;5.33;3.73;;;;;;;19.61;56.41;100617.19;4991420;28;20422;-82
2023/07/21 04:54:16;;;;;;;5.13;4.03;;;;;;;19.13;58.48;100616.38;4988204;28;20428;-80
2023/07/21 04:56:45;;;;;;;5.67;4.10;;;;;;;19.05;59.36;100617.72;4985632;28;20463;-80
2023/07/21 04:59:16;;;;;;;7.10;5.17;;;;;;;20.76;55.33;100616.63;4973227;28;20493;-81
2023/07/21 05:01:45;;;;;;;10.13;4.63;;;;;;;22.43;50.53;100617.91;4990774;28;20399;-82
2023/07/21 05:04:14;;;;;;;5.63;3.60;;;;;;;23.44;47.17;100622.47;4975387;28;20463;-80
2023/07/21 05:06:43;;;;;;;6.43;4.00;;;;;;;23.10;47.01;100622.56;4997179;28;20439;-81
2023/07/21 05:09:13;;;;;;;5.80;3.57;;;;;;;22.33;49.01;100617.97;4989795;28;20449;-81
2023/07/21 05:11:44;;;;;;;5.73;3.30;;;;;;;21.44;50.42;100611.56;4988625;28;20420;-80
2023/07/21 05:14:22;;;;;;;4.90;3.30;;;;;;;20.18;54.61;100619.84;4971128;28;20430;-81
2023/07/21 05:17:10;;;;;;;4.37;3.87;;;;;;;19.44;56.73;100615.50;4984065;28;20507;-80
2023/07/21 05:19:50;;;;;;;4.90;4.03;;;;;;;19.37;58.32;100619.53;4985849;28;20413;-81
2023/07/21 05:22:39;;;;;;;7.20;3.70;;;;;;;19.55;58.20;100621.03;4970448;28;20484;-81
2023/07/21 05:25:35;;;;;;;5.10;3.40;;;;;;;19.39;58.44;100614.59;4990837;28;20421;-81
2023/07/21 05:28:06;;;;;;;5.80;3.13;;;;;;;19.42;58.22;100616.81;4994118;28;20471;-80
2023/07/21 05:30:36;;;;;;;8.00;4.57;;;;;;;19.11;59.48;100613.09;4987155;28;20831;-81
2023/07/21 05:33:05;;;;;;;6.57;3.83;;;;;;;18.88;60.20;100621.72;4983001;28;20457;-82
2023/07/21 05:35:34;;;;;;;5.80;3.47;;;;;;;18.83;61.09;100617.00;4997095;28;20798;-80
2023/07/21 05:38:14;;;;;;;7.30;3.47;;;;;;;18.54;62.15;100616.50;4990019;28;21038;-81
2023/07/21 05:40:43;;;;;;;6.37;4.17;;;;;;;18.45;62.06;100609.81;4994151;28;20451;-81
2023/07/21 05:43:14;;;;;;;6.90;3.53;;;;;;;18.47;62.11;100599.44;4993452;28;20471;-83
2023/07/21 05:45:43;;;;;;;4.33;2.87;;;;;;;18.42;62.01;100601.31;4991475;28;20439;-82
2023/07/21 05:48:12;;;;;;;5.13;3.30;;;;;;;18.43;62.36;100606.53;4994878;28;20441;-82
2023/07/21 05:50:46;;;;;;;11.00;4.47;;;;;;;18.38;63.11;100605.66;4980108;28;20459;-81
2023/07/21 05:53:19;;;;;;;8.97;4.23;;;;;;;18.24;63.69;100595.13;4981627;28;20419;-82
2023/07/21 05:55:50;;;;;;;19.13;4.53;;;;;;;18.36;64.19;100603.16;4981867;28;20502;-81
2023/07/21 05:58:32;;;;;;;5.80;3.80;;;;;;;18.22;63.96;100597.28;4992602;28;20433;-81
2023/07/21 06:01:01;;;;;;;8.00;2.97;;;;;;;18.74;62.21;100604.03;5000849;28;20448;-82
2023/07/21 06:03:31;;;;;;;10.20;3.93;;;;;;;18.44;63.85;100604.63;4992240;28;20580;-83
2023/07/21 06:06:01;;;;;;;5.43;4.00;;;;;;;18.44;63.43;100599.13;4992000;28;20459;-83
2023/07/21 06:08:57;;;;;;;5.40;3.03;;;;;;;18.45;62.40;100607.06;4985158;28;20478;-82
2023/07/21 06:11:40;;;;;;;4.87;2.70;;;;;;;18.15;62.75;100609.56;4985088;28;20444;-81
2023/07/21 06:14:21;;;;;;;6.87;4.17;;;;;;;18.40;62.07;100603.47;4997773;28;20417;-82
2023/07/21 06:17:01;;;;;;;5.67;3.80;;;;;;;18.67;60.76;100610.59;4991657;28;20451;-83
2023/07/21 06:19:34;;;;;;;8.20;4.10;;;;;;;18.69;60.63;100617.75;4992596;28;20403;-81
2023/07/21 06:22:04;;;;;;;4.30;3.27;;;;;;;18.85;61.00;100616.75;4997524;28;20437;-83
2023/07/21 06:24:34;;;;;;;3.80;2.87;;;;;;;19.23;59.69;100607.38;5007221;28;20437;-80
2023/07/21 06:27:03;;;;;;;4.73;3.37;;;;;;;19.22;59.71;100612.03;4974803;28;20476;-80
2023/07/21 06:29:34;;;;;;;6.50;3.40;;;;;;;19.87;59.31;100606.03;4975111;28;20439;-80
2023/07/21 06:32:04;;;;;;;4.10;3.20;;;;;;;19.61;56.69;100604.28;4991550;28;20443;-81
2023/07/21 06:34:55;;;;;;;5.20;2.57;;;;;;;19.76;58.40;100606.28;4998477;28;20443;-83
2023/07/21 06:37:43;;;;;;;7.37;3.50;;;;;;;19.73;59.40;100610.41;4990222;28;20509;-83
2023/07/21 06:40:41;;;;;;;4.87;3.33;;;;;;;19.31;59.23;100599.50;4978407;28;20413;-83
2023/07/21 06:43:29;;;;;;;4.60;2.87;;;;;;;19.88;58.81;100602.22;4994430;28;20481;-81
2023/07/21 06:46:23;;;;;;;7.10;2.73;;;;;;;19.42;58.84;100601.16;4991061;28;20438;-81
2023/07/21 06:49:15;;;;;;;4.77;3.10;;;;;;;19.24;60.34;100604.38;4949989;28;20415;-83
2023/07/21 06:51:55;;;;;;;5.73;3.07;;;;;;;19.36;60.07;100615.16;4985822;28;20449;-83
2023/07/21 06:54:29;;;;;;;5.33;4.10;;;;;;;19.23;57.66;100610.94;4985275;28;20416;-82
2023/07/21 06:56:59;;;;;;;5.53;2.90;;;;;;;19.47;58.54;100616.88;5002162;28;20463;-82
2023/07/21 06:59:28;;;;;;;8.10;3.23;;;;;;;19.53;57.08;100613.88;4995465;28;20419;-84
2023/07/21 07:02:00;;;;;;;4.37;3.27;;;;;;;19.64;57.61;100611.19;4987080;28;20434;-82
2023/07/21 07:04:29;;;;;;;6.77;4.03;;;;;;;19.78;57.96;100601.34;4993925;28;20449;-81
2023/07/21 07:06:59;;;;;;;7.00;5.23;;;;;;;19.53;56.74;100613.88;4992674;28;20536;-82
2023/07/21 07:09:28;;;;;;;6.63;5.60;;;;;;;19.31;57.11;100607.72;4987520;28;20420;-82
2023/07/21 07:11:57;;;;;;;4.70;4.10;;;;;;;19.36;58.52;100602.25;4994947;28;20517;-81
2023/07/21 07:14:27;;;;;;;5.47;4.87;;;;;;;19.68;57.13;100604.88;4981289;28;20489;-80
2023/07/21 07:16:56;;;;;;;8.43;5.40;;;;;;;19.65;56.14;100612.84;4977531;28;20447;-82
2023/07/21 07:19:27;;;;;;;6.27;4.37;;;;;;;19.67;58.04;100618.88;4988065;28;20458;-82
2023/07/21 07:21:57;;;;;;;8.20;5.83;;;;;;;19.75;55.74;100621.91;4990939;28;20454;-83
2023/07/21 07:24:26;;;;;;;6.83;4.53;;;;;;;19.47;57.51;100612.19;4995196;28;20508;-82
2023/07/21 07:26:55;;;;;;;6.70;5.50;;;;;;;19.72;57.54;100614.22;4972373;28;20446;-81
2023/07/21 07:29:25;;;;;;;9.10;6.17;;;;;;;19.74;57.85;100616.72;4995239;28;20425;-80
2023/07/21 07:31:54;;;;;;;6.23;5.30;;;;;;;19.80;58.18;100610.16;4982130;28;20435;-79
2023/07/21 07:34:24;;;;;;;5.93;5.10;;;;;;;19.91;58.30;100618.13;4978564;28;20470;-81
2023/07/21 07:36:55;;;;;;;6.43;4.97;;;;;;;20.11;56.61;100609.13;4993315;28;20409;-82
2023/07/21 07:39:25;;;;;;;9.50;6.13;;;;;;;19.64;56.90;100611.19;4981083;28;20432;-81
2023/07/21 07:41:54;;;;;;;9.23;5.87;;;;;;;19.39;57.05;100607.22;4989405;28;20433;-81
2023/07/21 07:44:23;;;;;;;9.53;7.17;;;;;;;19.37;57.52;100609.38;4991556;28;20479;-82
2023/07/21 07:46:56;;;;;;;10.63;6.37;;;;;;;19.71;56.20;100603.50;4985028;28;20455;-81
2023/07/21 07:49:26;;;;;;;10.23;8.00;;;;;;;19.98;55.52;100604.16;5002491;28;20420;-83
2023/07/21 07:51:56;;;;;;;7.87;6.57;;;;;;;19.92;56.10;100599.75;4997630;28;20446;-83
2023/07/21 07:54:26;;;;;;;8.90;5.90;;;;;;;20.27;55.80;100599.81;5006774;28;20510;-84
2023/07/21 07:56:55;;;;;;;13.37;6.67;;;;;;;20.44;54.12;100595.97;5010763;28;20410;-83
2023/07/21 07:59:24;;;;;;;12.57;7.30;;;;;;;20.59;53.75;100594.06;4992380;28;20445;-83
2023/07/21 08:01:55;;;;;;;9.13;7.60;;;;;;;20.56;53.17;100602.88;4998813;28;20413;-83
2023/07/21 08:04:25;;;;;;;11.50;7.30;;;;;;;20.27;52.88;100608.06;4993529;28;20476;-82
2023/07/21 08:06:56;;;;;;;11.50;6.00;;;;;;;20.17;53.39;100601.72;4995112;28;20476;-80
2023/07/21 08:09:25;;;;;;;6.00;5.13;;;;;;;20.62;53.85;100600.97;4995319;28;20424;-80
2023/07/21 08:11:54;;;;;;;5.73;5.00;;;;;;;20.59;52.40;100598.75;4994561;28;20516;-82
2023/07/21 08:14:27;;;;;;;4.77;3.60;;;;;;;20.62;51.93;100596.25;4986047;28;20438;-81
2023/07/21 08:16:56;;;;;;;7.63;4.57;;;;;;;21.10;51.88;100594.84;5002110;28;20406;-82
2023/07/21 08:19:25;;;;;;;7.23;4.00;;;;;;;21.30;51.24;100593.16;4991873;28;20419;-83
2023/07/21 08:21:59;;;;;;;8.10;4.20;;;;;;;21.30;48.44;100593.16;4995877;28;20417;-82
2023/07/21 08:24:30;;;;;;;6.70;4.47;;;;;;;21.37;49.04;100585.41;5001074;28;20485;-81
2023/07/21 08:27:02;;;;;;;6.60;4.00;;;;;;;21.76;49.01;100591.03;4986996;28;20500;-79
2023/07/21 08:29:32;;;;;;;8.37;4.33;;;;;;;22.13;47.67;100590.53;4984493;28;20452;-80
2023/07/21 08:32:01;;;;;;;4.33;3.93;;;;;;;22.18;47.32;100593.28;4975692;28;20413;-82
2023/07/21 08:34:31;;;;;;;8.23;4.30;;;;;;;22.32;47.26;100597.84;5007623;28;20433;-84
2023/07/21 08:37:03;;;;;;;8.70;4.27;;;;;;;22.36;45.92;100601.72;5007728;28;20817;-82
2023/07/21 08:39:32;;;;;;;4.67;4.03;;;;;;;22.69;45.70;100593.69;4986050;28;20489;-81
2023/07/21 08:42:10;;;;;;;6.90;3.93;;;;;;;22.49;46.58;100601.03;4990490;28;20439;-81
2023/07/21 08:44:46;;;;;;;5.50;4.00;;;;;;;22.45;45.49;100593.63;4982752;28;20490;-82
2023/07/21 08:47:15;;;;;;;7.13;4.33;;;;;;;22.30;45.11;100591.00;4983816;28;20463;-81
2023/07/21 08:49:45;;;;;;;5.80;3.60;;;;;;;22.00;45.66;100598.34;4988739;28;20511;-81
2023/07/21 08:52:16;;;;;;;9.50;4.10;;;;;;;21.67;46.82;100593.56;4989724;28;20462;-82
2023/07/21 08:54:46;;;;;;;10.10;4.20;;;;;;;21.86;46.62;100593.72;4991166;28;20435;-81
2023/07/21 08:57:16;;;;;;;6.50;4.30;;;;;;;22.07;47.20;100590.56;4986057;28;20484;-81
2023/07/21 08:59:49;;;;;;;9.23;4.70;;;;;;;22.53;46.07;100595.75;4993603;28;20446;-82
2023/07/21 09:02:19;;;;;;;5.20;3.97;;;;;;;22.54;45.88;100591.91;4980322;28;20417;-80
2023/07/21 09:04:50;;;;;;;8.10;4.70;;;;;;;22.59;45.52;100589.09;4992214;28;20470;-81
2023/07/21 09:07:26;;;;;;;10.50;4.50;;;;;;;22.07;46.51;100589.78;4993677;28;20648;-82
2023/07/21 09:09:55;;;;;;;10.63;4.50;;;;;;;22.10;47.30;100587.28;4992839;28;20419;-83
2023/07/21 09:12:35;;;;;;;6.97;4.87;;;;;;;22.40;47.46;100580.72;5008898;28;20473;-83
2023/07/21 09:15:10;;;;;;;6.97;3.93;;;;;;;22.63;46.50;100581.88;4987380;28;20448;-81
2023/07/21 09:17:52;;;;;;;6.10;3.13;;;;;;;22.33;45.08;100580.22;4990450;28;20532;-81
2023/07/21 09:20:21;;;;;;;5.30;3.80;;;;;;;21.86;45.65;100583.53;4993040;28;20934;-82
2023/07/21 09:22:53;;;;;;;8.00;5.83;;;;;;;21.93;45.68;100586.00;4988964;28;20451;-82
2023/07/21 09:25:24;;;;;;;6.50;5.87;;;;;;;21.85;46.75;100584.63;4989991;28;20476;-80
2023/07/21 09:27:54;;;;;;;6.53;4.27;;;;;;;22.08;47.74;100583.97;4994809;28;20457;-81
2023/07/21 09:30:24;;;;;;;8.93;4.57;;;;;;;22.16;49.60;100590.00;4998967;28;20487;-81
2023/07/21 09:32:56;;;;;;;6.20;4.07;;;;;;;22.15;50.24;100585.59;4991304;28;20523;-79
2023/07/21 09:35:29;;;;;;;6.30;3.80;;;;;;;22.11;49.99;100585.34;4967897;28;20454;-80
2023/07/21 09:38:01;;;;;;;6.43;3.53;;;;;;;22.22;50.77;100589.66;4974982;28;20473;-81
2023/07/21 09:40:32;;;;;;;6.47;4.00;;;;;;;22.09;53.04;100593.88;4975230;28;20417;-81
2023/07/21 09:43:02;;;;;;;5.10;3.80;;;;;;;21.86;51.02;100597.31;4986951;28;20702;-81
2023/07/21 09:45:31;;;;;;;8.03;4.50;;;;;;;21.97;51.37;100592.59;4983000;28;20470;-80
2023/07/21 09:48:02;;;;;;;7.37;4.87;;;;;;;21.72;49.25;100590.78;4970676;28;20475;-80
2023/07/21 09:50:31;;;;;;;7.90;5.00;;;;;;;21.74;51.06;100583.03;4989536;28;20484;-80
2023/07/21 09:53:04;;;;;;;7.50;4.20;;;;;;;21.77;49.72;100585.25;4984703;28;20431;-81
2023/07/21 09:55:41;;;;;;;8.10;4.60;;;;;;;21.48;50.08;100587.84;4980150;28;20476;-82
2023/07/21 09:58:14;;;;;;;9.20;3.63;;;;;;;21.05;49.79;100585.78;4972435;28;20497;-81
2023/07/21 10:00:48;;;;;;;6.53;5.70;;;;;;;20.81;53.68;100585.53;4978662;28;20866;-80
2023/07/21 10:03:18;;;;;;;5.70;4.20;;;;;;;20.82;53.65;100582.50;4985654;28;20457;-82
2023/07/21 10:05:48;;;;;;;5.50;3.90;;;;;;;21.23;52.53;100577.75;4970035;28;21005;-81
2023/07/21 10:08:21;;;;;;;6.27;4.50;;;;;;;21.52;53.53;100585.34;4973349;28;20474;-80
2023/07/21 10:10:50;;;;;;;7.33;3.63;;;;;;;21.37;51.60;100582.66;4998739;28;20608;-80
2023/07/21 10:13:20;;;;;;;4.97;3.03;;;;;;;21.41;51.54;100572.72;4993527;28;20390;-81
2023/07/21 10:15:49;;;;;;;5.40;3.73;;;;;;;21.31;48.58;100572.78;4986381;28;20443;-81
2023/07/21 10:18:20;;;;;;;5.77;4.07;;;;;;;21.35;49.77;100571.13;4984374;28;20854;-80
2023/07/21 10:20:51;;;;;;;7.50;4.20;;;;;;;21.09;52.51;100565.66;4979101;28;20421;-80
2023/07/21 10:23:27;;;;;;;12.20;3.90;;;;;;;21.49;50.50;100574.91;4999097;28;20450;-81
2023/07/21 10:25:59;;;;;;;10.90;4.53;;;;;;;21.62;51.93;100566.03;4972543;28;20992;-81
2023/07/21 10:28:42;;;;;;;5.80;4.57;;;;;;;21.32;52.43;100553.22;4965598;28;20468;-81
2023/07/21 10:31:36;;;;;;;12.83;4.60;;;;;;;21.21;52.23;100551.63;4977280;28;20402;-80
2023/07/21 10:34:09;;;;;;;8.63;5.20;;;;;;;21.46;51.77;100543.25;4984230;28;20459;-81
2023/07/21 10:36:44;;;;;;;12.53;5.27;;;;;;;21.17;53.56;100540.34;4977641;28;20971;-81
2023/07/21 10:39:19;;;;;;;7.83;4.90;;;;;;;21.23;52.91;100542.00;4972956;28;20461;-80
2023/07/21 10:41:50;;;;;;;6.90;5.00;;;;;;;21.60;52.50;100543.47;4965179;28;20431;-81
2023/07/21 10:44:20;;;;;;;8.13;5.00;;;;;;;21.49;51.77;100544.63;4969911;28;20417;-82
2023/07/21 10:46:50;;;;;;;9.47;6.03;;;;;;;21.58;52.65;100537.44;4964721;28;20978;-82
2023/07/21 10:49:21;;;;;;;13.67;6.87;;;;;;;21.94;52.19;100527.84;4966602;28;20975;-82
2023/07/21 10:51:51;;;;;;;11.63;5.30;;;;;;;21.97;51.57;100532.81;4995240;28;20430;-81
2023/07/21 10:54:22;;;;;;;6.50;5.90;;;;;;;21.95;51.75;100535.03;4973336;28;20534;-80
2023/07/21 10:56:52;;;;;;;9.93;5.97;;;;;;;21.84;51.99;100527.91;4971945;28;20447;-81
2023/07/21 10:59:21;;;;;;;10.63;7.60;;;;;;;22.12;53.27;100520.84;4974865;28;20443;-81
2023/07/21 11:01:53;;;;;;;8.27;5.33;;;;;;;22.19;52.43;100523.25;4997171;28;20458;-80
2023/07/21 11:04:23;;;;;;;6.60;5.47;;;;;;;21.63;53.70;100520.88;4992645;28;20449;-80
2023/07/21 11:06:54;;;;;;;6.20;5.60;;;;;;;21.68;53.52;100512.59;4980858;28;20478;-81
2023/07/21 11:09:26;;;;;;;14.07;7.30;;;;;;;21.65;53.20;100513.97;4997306;28;20483;-81
2023/07/21 11:11:57;;;;;;;6.33;5.73;;;;;;;21.68;52.84;100505.16;4970152;28;20465;-81
2023/07/21 11:14:28;;;;;;;8.53;5.10;;;;;;;21.55;51.98;100508.53;4988746;28;20409;-83
2023/07/21 11:16:59;;;;;;;11.57;5.30;;;;;;;21.56;52.57;100506.59;4988112;28;20467;-80
2023/07/21 11:19:30;;;;;;;8.43;4.70;;;;;;;21.80;52.30;100510.28;4980443;28;20433;-81
2023/07/21 11:22:00;;;;;;;6.90;4.57;;;;;;;21.91;50.49;100503.63;4979723;28;20418;-80
2023/07/21 11:24:32;;;;;;;3.40;2.80;;;;;;;21.80;50.46;100504.78;4976210;28;20443;-81
2023/07/21 11:27:06;;;;;;;4.40;3.53;;;;;;;21.94;49.74;100500.31;4957668;28;20480;-80
2023/07/21 11:29:41;;;;;;;7.20;3.63;;;;;;;22.13;49.77;100497.69;4975485;28;20879;-81
2023/07/21 11:32:20;;;;;;;4.30;3.00;;;;;;;22.13;50.27;100496.84;4986545;28;20471;-81
2023/07/21 11:34:57;;;;;;;7.60;4.47;;;;;;;22.17;51.01;100496.03;4993733;28;20420;-81
2023/07/21 11:37:26;;;;;;;4.70;3.97;;;;;;;21.72;52.03;100494.38;4984759;28;20488;-81
2023/07/21 11:39:58;;;;;;;6.87;3.30;;;;;;;21.69;53.13;100497.69;5000622;28;20518;-80
2023/07/21 11:42:41;;;;;;;5.70;3.40;;;;;;;22.07;52.02;100488.63;4992923;28;20471;-80
2023/07/21 11:45:32;;;;;;;4.30;3.50;;;;;;;21.91;51.45;100484.34;4981721;28;20449;-80
2023/07/21 11:48:11;;;;;;;10.23;3.47;;;;;;;21.78;52.31;100487.75;4990966;28;20580;-82
2023/07/21 11:50:42;;;;;;;6.83;3.00;;;;;;;21.78;54.78;100479.47;4985153;28;20484;-80
2023/07/21 11:53:12;;;;;;;4.63;3.47;;;;;;;21.80;53.79;100477.25;5000476;28;20388;-79
2023/07/21 11:55:43;;;;;;;3.70;2.97;;;;;;;22.00;52.04;100490.91;4993190;28;20462;-80
2023/07/21 11:58:13;;;;;;;5.07;3.20;;;;;;;22.18;51.14;100481.09;4982006;28;20510;-79